Terminal Aerodrome Forecast
Issued by NWS

Home | Current Version | Previous Version | Graphics & Text | Print | Product List | Glossary On
Versions: 1 2 3 4 5 6 7 8 9 10 11 12 13 14 15 16 17 18 19 20 21 22 23 24 25 26 27 28 29 30 31 32 33 34 35 36 37 38 39 40 41 42 43 44 45 46 47 48 49 50
000
FTUS45 KBOU 041425 AAA
TAFAPA
TAF AMD
KAPA 041425Z 0414/0512 VRB06KT P6SM FEW120 BKN220
     FM042100 14008KT P6SM VCSH SCT080 BKN120
      TEMPO 0423/0502 VRB12G25KT -SHRA BKN080
     FM050200 34008KT P6SM SCT100 BKN150
     FM050700 19007KT P6SM FEW120 BKN180=

USA.gov is the U.S. government's official web portal to all federal, state and local government web resources and services.